Wednesday, November 14, 2018, 7:34 AM GMT
Back to Local

CYPQ, Peterborough Airport

Location: , , Canada Lat: 44.233
Local Time: 7:34 AM GMT ( 7:34 GMT) Lon: -78.367
Time Zone: GMT Elev: 626 ft

Show me the last for .
Show Decoded

2018-11-14 07:00 METAR CYPQ 140700Z AUTO 32012G20KT 9SM FEW049 BKN060 M08/M14 A3025 RMK SLP257 =
2018-11-14 06:00 METAR CYPQ 140600Z AUTO 32013KT 9SM CLR M07/M13 A3023 RMK SLP248 =
2018-11-14 05:02 METAR CYPQ 140502Z AUTO 32013G24KT 9SM FEW029 M05/M10 A3019 RMK SLP236 =
2018-11-14 05:00 METAR CYPQ 140500Z AUTO 32016G24KT 9SM -SN FEW029 M05/M10 A3019 RMK SLP236 =
2018-11-14 04:33 METAR CYPQ 140433Z AUTO 33018G25KT 7SM -SN SCT024 BKN030 BKN035 M04/M08 A3018
                 RMK SLP232 =
2018-11-14 04:32 METAR CYPQ 140432Z AUTO 32019G25KT 6SM -SN BKN024 BKN030 BKN035 M04/M08 A3018
                 RMK SLP231 =
2018-11-14 04:31 METAR CYPQ 140431Z AUTO 33017G25KT 6SM -SN FEW020 BKN027 BKN035 M04/M08 A3018
                 RMK SLP231
2018-11-14 04:24 METAR CYPQ 140424Z AUTO 33017G24KT 8SM -SN BKN022 BKN035 M04/M07 A3017 RMK
                 SLP229 =
2018-11-14 04:19 METAR CYPQ 140419Z AUTO 33011G17KT 300V360 9SM -SN SCT022 BKN033 M04/M06 A3017
                 RMK PRESRR SLP229 =
2018-11-14 04:11 METAR CYPQ 140411Z AUTO 31013KT 9SM SCT031 M04/M06 A3016 RMK SLP225 =
2018-11-14 04:00 METAR CYPQ 140400Z AUTO 30012KT 9SM -SN BKN029 M04/M06 A3016 RMK SLP223 =
2018-11-14 03:55 METAR CYPQ 140355Z AUTO 30011G16KT 6SM -SN OVC031 M04/M05 A3016 RMK SLP223 =
2018-11-14 03:39 METAR CYPQ 140339Z AUTO 27012G20KT 5SM -SN OVC029 M03/M05 A3016 RMK SLP223 =
2018-11-14 03:33 METAR CYPQ 140333Z AUTO 28015G20KT 6SM -SN OVC029 M03/M05 A3015 RMK SLP221 =
2018-11-14 03:22 METAR CYPQ 140322Z AUTO 28015G21KT 3SM -SN OVC025 M03/M04 A3015 RMK SLP220 =
2018-11-14 03:21 METAR CYPQ 140321Z AUTO 27013G18KT 2 1/2SM -SN OVC025 M03/M04 A3015 RMK SLP221 =
2018-11-14 03:20 METAR CYPQ 140320Z AUTO 27014KT 2 1/2SM -SN OVC023 M03/M04 A3015 RMK SLP220 =
2018-11-14 03:16 METAR CYPQ 140316Z AUTO 27014KT 1 1/2SM -SN OVC018 M04/M04 A3015 RMK SLP220 =
2018-11-14 03:08 METAR CYPQ 140308Z AUTO 27013KT 1 1/4SM -SN OVC014 M04/M04 A3014 RMK SLP219 =
2018-11-14 03:00 METAR CYPQ 140300Z AUTO 26009G15KT 1 3/4SM -SN OVC016 M04/M04 A3014 RMK SLP219 =
2018-11-14 02:58 METAR CYPQ 140258Z AUTO 24007G15KT 1 1/2SM -SN OVC016 M04/M04 A3014 RMK SLP219 =
2018-11-14 02:45 METAR CYPQ 140245Z AUTO 27008G15KT 220V300 1 1/4SM -SN OVC018 M04/M04 A3014 RMK
                 SLP217 =
2018-11-14 02:39 METAR CYPQ 140239Z AUTO 26006KT 220V300 2 1/4SM -SN OVC022 M04/M04 A3014 RMK
                 SLP218 =
2018-11-14 02:36 METAR CYPQ 140236Z AUTO 27005KT 3SM -SN OVC024 M04/M04 A3014 RMK SLP218 =
2018-11-14 02:27 METAR CYPQ 140227Z AUTO 27008KT 3SM -SN OVC030 M04/M05 A3014 RMK SLP219 =
2018-11-14 02:26 METAR CYPQ 140226Z AUTO 27008KT 2 1/2SM -SN OVC030 M04/M05 A3014 RMK SLP219 =
2018-11-14 02:23 METAR CYPQ 140223Z AUTO 27007KT 2 1/4SM -SN OVC030 M04/M05 A3014 RMK SLP218 =
2018-11-14 02:20 METAR CYPQ 140220Z AUTO 26006KT 2 1/2SM -SN BKN028 OVC036 M04/M04 A3014 RMK
                 SLP218 =
2018-11-14 02:17 METAR CYPQ 140217Z AUTO 27005KT 4SM -SN BKN028 OVC036 M04/M05 A3014 RMK SLP218 =
2018-11-14 02:05 METAR CYPQ 140205Z AUTO 27003KT 250V310 6SM -SN SCT029 OVC036 M04/M04 A3014 RMK
                 SLP217 =
2018-11-14 02:00 METAR CYPQ 140200Z AUTO 30004KT 270V340 3SM -SN SCT029 OVC037 M04/M05 A3014 RMK
                 SLP216 =
2018-11-14 01:53 METAR CYPQ 140153Z AUTO 31004KT 5SM -SN FEW020 BKN025 BKN031 OVC036 M04/M04
                 A3014 RMK SLP216 =
2018-11-14 01:47 METAR CYPQ 140147Z AUTO 33004KT 290V350 6SM -SN SCT020 BKN027 OVC031 M04/M04
                 A3014 RMK SLP216 =
2018-11-14 01:43 METAR CYPQ 140143Z AUTO 33004KT 290V350 3SM -SN FEW015 SCT020 BKN027 OVC032
                 M04/M04 A3013 RMK SLP215 =
2018-11-14 01:41 METAR CYPQ 140141Z AUTO 32003KT 2 1/2SM -SN FEW015 SCT020 OVC027 M04/M04 A3013
                 RMK VIS VRB 1 3/4-3 SLP214 =
2018-11-14 01:39 METAR CYPQ 140139Z AUTO 31003KT 2 1/4SM -SN FEW013 SCT020 OVC027 M04/M04 A3013
                 RMK VIS VRB 1 3/4-3 SLP215 =
2018-11-14 01:37 METAR CYPQ 140137Z AUTO 31005KT 1 1/2SM -SN SCT013 BKN020 OVC027 M04/M04 A3013
                 RMK VIS VRB 5/8-3 SLP215 =
2018-11-14 01:29 METAR CYPQ 140129Z AUTO 32006KT 1SM -SN SCT013 OVC023 M03/M04 A3013 RMK SLP214 =
2018-11-14 01:20 METAR CYPQ 140120Z AUTO 30005KT 1 1/4SM -SN SCT017 OVC025 M03/M04 A3013 RMK VIS
                 VRB 3/4-1 3/4 SLP214 =
2018-11-14 01:18 METAR CYPQ 140118Z AUTO 30004KT 1 1/2SM -SN SCT017 OVC025 M03/M04 A3013 RMK VIS
                 VRB 1-1 3/4 SLP214 =
2018-11-14 01:15 METAR CYPQ 140115Z AUTO 30004KT 1 1/2SM -SN BKN019 OVC027 M03/M05 A3013 RMK
                 SLP214 =
2018-11-14 01:14 METAR CYPQ 140114Z AUTO 30004KT 1 1/2SM -SN SCT019 OVC027 M03/M05 A3013 RMK
                 SLP214 =
2018-11-14 01:10 METAR CYPQ 140110Z AUTO 29003KT 1 3/4SM -SN BKN021 BKN027 OVC033 M03/M05 A3013
                 RMK VIS VRB 1 1/4-2 1/2 SLP214 =
2018-11-14 01:07 METAR CYPQ 140107Z AUTO 28003KT 2SM -SN FEW021 BKN028 OVC033 M03/M05 A3013 RMK
                 VIS VRB 1 1/4-3 SLP214 =
2018-11-14 01:06 METAR CYPQ 140106Z AUTO 28003KT 2 1/4SM -SN BKN023 BKN028 OVC033 M03/M05 A3013
                 RMK VIS VRB 1 1/4-3 SLP214 =
2018-11-14 01:05 METAR CYPQ 140105Z AUTO 27004KT 2 1/4SM -SN BKN025 OVC033 M03/M05 A3013 RMK VIS
                 VRB 1 1/4-3 SLP214 =
2018-11-14 01:00 METAR CYPQ 140100Z AUTO 27003KT 5SM -SN BKN027 BKN033 OVC070 M03/M05 A3013 RMK
                 SLP214 =
2018-11-14 00:52 METAR CYPQ 140052Z AUTO 27003KT 9SM -SN BKN031 BKN042 OVC070 M03/M05 A3013 RMK
                 SLP214 =
2018-11-14 00:31 METAR CYPQ 140031Z AUTO 25003KT 9SM BKN044 OVC070 M03/M06 A3013 RMK SLP213 =
2018-11-14 00:00 METAR CYPQ 140000Z AUTO 28005KT 9SM -SN OVC037 M03/M05 A3013 RMK SLP214 =
2018-11-13 23:40 METAR CYPQ 132340Z AUTO 25003KT 9SM -SN BKN040 OVC050 M03/M05 A3013 RMK PRESRR
                 SLP213
2018-11-13 23:00 METAR CYPQ 132300Z AUTO 21002KT 9SM BKN041 OVC050 M03/M06 A3011 RMK SLP206 =
2018-11-13 22:00 METAR CYPQ 132200Z AUTO 27005KT 9SM FEW060 M03/M07 A3010 RMK SLP203 =
2018-11-13 21:00 METAR CYPQ 132100Z AUTO 32010G15KT 9SM CLR M02/M07 A3008 RMK SLP197 =
2018-11-13 20:00 METAR CYPQ 132000Z AUTO 31009KT 9SM OVC080 M01/M06 A3007 RMK SLP194 =
2018-11-13 19:00 METAR CYPQ 131900Z AUTO 33013KT 9SM OVC049 M01/M06 A3007 RMK SLP192 =
2018-11-13 18:30 METAR CYPQ 131830Z AUTO 32012G20KT 9SM OVC045 M01/M05 A3006 RMK SLP191 =
2018-11-13 18:15 METAR CYPQ 131815Z AUTO 33013G18KT 9SM -SN OVC043 M01/M05 A3006 RMK SLP191 =
2018-11-13 18:14 METAR CYPQ 131814Z AUTO 33014KT 9SM OVC043 M01/M05 A3006 RMK SLP191 =
2018-11-13 18:00 METAR CYPQ 131800Z AUTO 33012G17KT 9SM -SN OVC043 M01/M04 A3006 RMK SLP191 =
2018-11-13 17:56 METAR CYPQ 131756Z AUTO 34011G17KT 9SM -SN OVC043 M01/M05 A3006 RMK SLP190 =
2018-11-13 17:00 METAR CYPQ 131700Z AUTO 32008G15KT 9SM OVC035 M01/M03 A3006 RMK SLP189 =
2018-11-13 16:00 METAR CYPQ 131600Z AUTO 32013KT 9SM SCT013 BKN036 OVC048 00/M01 A3006 RMK SLP190
                 =
2018-11-13 15:39 METAR CYPQ 131539Z AUTO 33013G19KT 9SM SCT013 SCT023 OVC034 M00/M02 A3006 RMK
                 SLP188 =
2018-11-13 15:20 METAR CYPQ 131520Z AUTO 33015G20KT 9SM BKN013 BKN021 OVC032 M00/M01 A3005 RMK
                 SLP187 =
2018-11-13 15:00 METAR CYPQ 131500Z AUTO 32011G16KT 9SM -RA BKN013 OVC019 00/M00 A3005 RMK SLP186
                 =
2018-11-13 14:58 METAR CYPQ 131458Z AUTO 32010G16KT 9SM -RA BKN013 OVC019 00/M00 A3005 RMK SLP187
                 =
2018-11-13 14:51 METAR CYPQ 131451Z AUTO 32012KT 9SM OVC013 00/M00 A3005 RMK SLP187 =
2018-11-13 14:38 METAR CYPQ 131438Z AUTO 33012G17KT 9SM -RA OVC011 00/M00 A3006 RMK SLP188 =
2018-11-13 14:34 METAR CYPQ 131434Z AUTO 32013KT 9SM OVC011 00/M01 A3005 RMK SLP187 =
2018-11-13 14:00 METAR CYPQ 131400Z AUTO 31007KT 9SM OVC009 01/01 A3006 RMK SLP189 =
2018-11-13 13:52 METAR CYPQ 131352Z AUTO 32006KT 9SM OVC009 01/01 A3006 RMK SLP190 =
2018-11-13 13:18 METAR CYPQ 131318Z AUTO 32009KT 6SM BR BKN005 OVC011 00/00 A3005 RMK SLP186 =
2018-11-13 13:12 METAR CYPQ 131312Z AUTO 34006KT 3SM BR BKN005 OVC011 00/00 A3005 RMK SLP185 =
2018-11-13 13:11 METAR CYPQ 131311Z AUTO 35006KT 310V020 2 1/2SM BR BKN005 OVC011 00/00 A3005 RMK
                 SLP185 =
2018-11-13 13:01 METAR CYPQ 131301Z AUTO 00000KT 1 1/2SM BR OVC005 00/00 A3005 RMK SLP186 =
2018-11-13 13:00 METAR CYPQ 131300Z AUTO 00000KT 1 1/4SM BR OVC005 00/00 A3005 RMK SLP186 =
2018-11-13 12:23 METAR CYPQ 131223Z AUTO 00000KT 5/8SM BR OVC005 00/00 A3006 RMK SLP188 =
2018-11-13 12:07 METAR CYPQ 131207Z AUTO 00000KT 3/4SM -RA BR OVC005 00/00 A3006 RMK SLP190 =
2018-11-13 12:00 METAR CYPQ 131200Z AUTO 25002KT 3/4SM -RA BR VV004 00/00 A3006 RMK SLP189 =
2018-11-13 11:42 METAR CYPQ 131142Z AUTO 00000KT 3/4SM -RA BR VV003 00/00 A3006 RMK SLP188 =
2018-11-13 11:36 METAR CYPQ 131136Z AUTO 00000KT 3/4SM -RA -UP BR VV002 00/00 A3006 RMK SLP190 =
2018-11-13 11:21 METAR CYPQ 131121Z AUTO VRB02KT 3/4SM -UP BR BKN002 BKN010 BKN016 OVC028 00/00
                 A3007 RMK SLP193 =
2018-11-13 11:00 METAR CYPQ 131100Z AUTO 00000KT 5/8SM -UP BR SCT004 BKN014 OVC030 00/00 A3007
                 RMK SLP192 =
2018-11-13 10:51 METAR CYPQ 131051Z AUTO 00000KT 3/4SM -UP BR FEW002 SCT006 BKN010 OVC030 00/00
                 A3007 RMK PRESFR SLP191 =
2018-11-13 10:42 METAR CYPQ 131042Z AUTO 00000KT 3/4SM -UP BR SCT002 BKN008 OVC016 00/00 A3008
                 RMK SLP196 =
2018-11-13 10:35 METAR CYPQ 131035Z AUTO 00000KT 1SM -UP BR BKN005 OVC014 00/00 A3008 RMK SLP197
                 =
2018-11-13 10:07 METAR CYPQ 131007Z AUTO 00000KT 1 1/4SM -UP BR SCT003 OVC016 00/00 A3009 RMK
                 SLP198 =
2018-11-13 10:03 METAR CYPQ 131003Z AUTO 00000KT 1SM -SN -UP SCT003 OVC016 00/00 A3009 RMK SLP199
                 =
2018-11-13 10:01 METAR CYPQ 131001Z AUTO 00000KT 1SM -SN -UP BKN003 OVC016 00/00 A3009 RMK SLP199
                 =
2018-11-13 10:00 METAR CYPQ 131000Z AUTO 00000KT 1SM -SN BKN003 OVC016 00/00 A3009 RMK SLP199 =
2018-11-13 09:11 METAR CYPQ 130911Z AUTO 00000KT 3/4SM -SN OVC003 00/00 A3010 RMK SLP202 =
2018-11-13 09:00 METAR CYPQ 130900Z AUTO 19002KT 3/4SM -SN OVC005 00/00 A3011 RMK ICG PAST HR
                 SLP204 =
2018-11-13 08:54 METAR CYPQ 130854Z AUTO 20002KT 3/4SM -SN OVC005 00/00 A3011 RMK ICG PAST HR
                 SLP205 =
2018-11-13 08:36 METAR CYPQ 130836Z AUTO 20002KT 3/4SM -SN BKN005 OVC011 00/00 A3011 RMK ICG
                 SLP207 =
2018-11-13 08:35 METAR CYPQ 130835Z AUTO 20002KT 3/4SM -SN SCT005 OVC011 00/00 A3012 RMK ICG
                 SLP208 =
2018-11-13 08:27 METAR CYPQ 130827Z AUTO 17002KT 3/4SM -SN FEW003 BKN009 OVC017 00/00 A3011 RMK
                 ICG SLP207 =
2018-11-13 08:18 METAR CYPQ 130818Z AUTO 14002KT 3/4SM -SN BKN009 OVC017 00/00 A3012 RMK SLP208 =
2018-11-13 08:12 METAR CYPQ 130812Z AUTO VRB02KT 3/4SM -SN -UP BKN009 OVC021 00/00 A3012 RMK
                 SLP209 =
2018-11-13 08:07 METAR CYPQ 130807Z AUTO 00000KT 3/4SM -UP BR BKN009 OVC021 00/00 A3012 RMK
                 SLP210 =
2018-11-13 08:06 METAR CYPQ 130806Z AUTO 00000KT 3/4SM -UP BR BKN007 OVC021 00/00 A3012 RMK
                 SLP210 =
2018-11-13 08:00 METAR CYPQ 130800Z AUTO 00000KT 1SM -SN -UP OVC007 00/00 A3012 RMK SLP210 =
2018-11-13 07:56 METAR CYPQ 130756Z AUTO 00000KT 1SM -SN -UP OVC007 00/00 A3013 RMK SLP211 =
2018-11-13 07:48 METAR CYPQ 130748Z AUTO 19002KT 1SM -UP BR OVC007 00/00 A3014 RMK SLP215 =
2018-11-13 07:40 METAR CYPQ 130740Z AUTO 00000KT 1 1/4SM -SN -UP OVC005 00/00 A3014 RMK SLP214 =
2018-11-13 07:36 METAR CYPQ 130736Z AUTO 00000KT 1 1/4SM RASN OVC005 00/00 A3014 RMK SLP216 =

Support USWX by starting your Amazon purchase here.